Time;durP1;ratioP1;P1;durP2;ratioP2;P2;SDS_P1;SDS_P2;PMS_P1;PMS_P2;Temp;Humidity;BMP_temperature;BMP_pressure;BME280_temperature;BME280_humidity;BME280_pressure;Samples;Min_cycle;Max_cycle;Signal;HPM_P1;HPM_P2
2022/01/17 00:00:56;;;;;;;13.10;9.03;;;5.30;99.90;;;;;;5034802;28;20222;-61
2022/01/17 00:03:25;;;;;;;12.47;9.07;;;5.20;99.90;;;;;;5034453;28;20621;-61
2022/01/17 00:05:52;;;;;;;13.07;9.67;;;5.10;99.90;;;;;;5034587;28;20212;-61
2022/01/17 00:08:19;;;;;;;11.17;8.53;;;5.20;99.90;;;;;;5034660;28;20222;-61
2022/01/17 00:10:46;;;;;;;11.37;9.27;;;5.10;99.90;;;;;;5034474;28;20234;-62
2022/01/17 00:13:21;;;;;;;11.93;9.07;;;5.00;99.90;;;;;;5034409;28;20237;-61
2022/01/17 00:15:51;;;;;;;13.13;10.13;;;4.90;99.90;;;;;;5034864;28;20210;-61
2022/01/17 00:18:40;;;;;;;13.63;10.47;;;4.70;99.90;;;;;;5034327;28;20206;-61
2022/01/17 00:21:08;;;;;;;14.60;10.70;;;4.70;99.90;;;;;;5034320;28;20259;-61
2022/01/17 00:23:35;;;;;;;17.17;11.77;;;4.80;99.90;;;;;;5034129;28;20237;-61
2022/01/17 00:26:01;;;;;;;16.97;11.27;;;4.70;99.90;;;;;;5034068;28;20211;-62
2022/01/17 00:28:28;;;;;;;13.30;10.53;;;4.70;99.90;;;;;;5034318;28;20604;-61
2022/01/17 00:30:55;;;;;;;14.97;10.80;;;4.70;99.90;;;;;;5034074;28;20292;-62
2022/01/17 00:33:21;;;;;;;14.10;10.83;;;4.70;99.90;;;;;;5033911;28;20677;-61
2022/01/17 00:35:48;;;;;;;15.97;11.37;;;4.50;99.90;;;;;;5034136;28;20206;-61
2022/01/17 00:38:16;;;;;;;14.33;11.03;;;4.40;99.90;;;;;;5034287;28;20265;-62
2022/01/17 00:40:43;;;;;;;15.20;11.83;;;4.50;99.90;;;;;;5033999;28;20226;-62
2022/01/17 00:43:11;;;;;;;18.23;13.07;;;4.40;99.90;;;;;;5033817;28;20207;-61
2022/01/17 00:45:40;;;;;;;16.23;11.97;;;4.40;99.90;;;;;;5033974;28;20635;-62
2022/01/17 00:48:07;;;;;;;16.77;12.53;;;4.40;99.90;;;;;;5033810;28;20705;-62
2022/01/17 00:50:37;;;;;;;15.33;11.73;;;4.50;99.90;;;;;;5033655;28;20226;-61
2022/01/17 00:53:05;;;;;;;16.90;13.23;;;4.60;99.90;;;;;;5033815;28;20248;-61
2022/01/17 00:55:34;;;;;;;15.97;12.20;;;4.80;99.90;;;;;;5033852;28;20210;-62
2022/01/17 00:58:01;;;;;;;16.33;11.77;;;5.10;99.90;;;;;;5033724;28;20551;-61
2022/01/17 01:00:28;;;;;;;15.33;12.60;;;5.30;99.90;;;;;;5033348;28;20234;-62
2022/01/17 01:02:56;;;;;;;17.73;11.70;;;5.40;99.90;;;;;;5033710;28;20206;-61
2022/01/17 01:05:23;;;;;;;18.47;13.00;;;5.60;99.90;;;;;;5033793;28;20210;-62
2022/01/17 01:07:53;;;;;;;16.67;12.87;;;5.70;99.90;;;;;;5033242;28;20272;-62
2022/01/17 01:10:20;;;;;;;17.90;12.83;;;5.90;99.90;;;;;;5033382;28;20230;-62
2022/01/17 01:12:50;;;;;;;16.20;12.40;;;6.00;99.90;;;;;;5033000;28;20206;-62
2022/01/17 01:15:22;;;;;;;15.97;12.13;;;5.90;99.90;;;;;;5033638;28;20256;-61
2022/01/17 01:17:52;;;;;;;19.33;12.70;;;5.80;99.90;;;;;;5033506;28;20213;-62
2022/01/17 01:20:35;;;;;;;19.10;13.77;;;5.60;99.90;;;;;;5033731;28;20222;-61
2022/01/17 01:28:31;;;;;;;20.53;14.07;;;5.40;99.90;;;;;;5032988;28;20237;-61
2022/01/17 01:31:01;;;;;;;19.07;14.30;;;5.40;99.90;;;;;;5033554;28;20238;-61
2022/01/17 01:33:31;;;;;;;20.97;14.27;;;5.40;99.90;;;;;;5032915;28;20243;-61
2022/01/17 01:36:02;;;;;;;20.50;14.07;;;5.30;99.90;;;;;;5032880;28;20694;-62
2022/01/17 01:38:29;;;;;;;21.27;15.83;;;5.50;99.90;;;;;;5031999;28;20229;-61
2022/01/17 01:40:56;;;;;;;23.87;16.00;;;5.50;99.90;;;;;;5032936;28;20237;-61
2022/01/17 01:43:23;;;;;;;21.77;15.50;;;5.60;99.90;;;;;;5032602;28;20629;-61
2022/01/17 01:45:57;;;;;;;20.60;15.23;;;5.70;99.90;;;;;;5032654;28;20210;-60
2022/01/17 01:48:23;;;;;;;23.83;15.70;;;5.80;99.90;;;;;;5032771;28;20230;-61
2022/01/17 01:50:50;;;;;;;23.10;14.80;;;5.80;99.90;;;;;;5032564;28;20472;-61
2022/01/17 01:53:17;;;;;;;22.23;15.23;;;5.70;99.90;;;;;;5032549;28;20630;-61
2022/01/17 01:55:45;;;;;;;20.53;15.10;;;5.50;99.90;;;;;;5032705;28;20264;-61
2022/01/17 01:58:12;;;;;;;20.13;14.90;;;5.50;99.90;;;;;;5032593;28;20206;-61
2022/01/17 02:00:39;;;;;;;21.20;15.40;;;5.60;99.90;;;;;;5032393;28;20279;-61
2022/01/17 02:03:07;;;;;;;22.03;15.87;;;5.70;99.90;;;;;;5032170;28;20205;-61
2022/01/17 02:05:33;;;;;;;23.80;14.33;;;5.80;99.90;;;;;;5032167;28;20233;-61
2022/01/17 02:08:00;;;;;;;21.40;15.80;;;5.90;99.90;;;;;;5032378;28;20233;-61
2022/01/17 02:10:27;;;;;;;22.90;15.63;;;5.90;99.90;;;;;;5032255;28;20252;-61
2022/01/17 02:12:54;;;;;;;25.03;16.37;;;6.00;99.90;;;;;;5032084;28;20210;-63
2022/01/17 02:15:21;;;;;;;22.10;15.60;;;6.10;99.90;;;;;;5032210;28;20221;-61
2022/01/17 02:17:54;;;;;;;20.70;15.10;;;6.20;99.90;;;;;;5032212;28;20203;-62
2022/01/17 02:20:23;;;;;;;20.43;15.40;;;6.20;99.90;;;;;;5032322;28;20230;-61
2022/01/17 02:22:51;;;;;;;21.37;16.00;;;6.20;99.90;;;;;;5032331;28;20214;-61
2022/01/17 02:25:19;;;;;;;22.27;14.93;;;6.00;99.90;;;;;;5032234;28;20252;-61
2022/01/17 02:27:46;;;;;;;20.60;14.97;;;5.90;99.90;;;;;;5032094;28;20230;-61
2022/01/17 02:30:17;;;;;;;21.63;14.93;;;5.90;99.90;;;;;;5031851;28;20217;-61
2022/01/17 02:32:43;;;;;;;24.10;15.43;;;5.90;99.90;;;;;;5032341;28;20248;-62
2022/01/17 02:35:16;;;;;;;24.10;15.03;;;5.80;99.90;;;;;;5032354;28;20206;-61
2022/01/17 02:37:44;;;;;;;19.63;14.83;;;5.60;99.90;;;;;;5032230;28;20257;-61
2022/01/17 02:40:14;;;;;;;19.50;14.93;;;5.50;99.90;;;;;;5032068;28;20220;-61
2022/01/17 02:42:41;;;;;;;22.30;16.27;;;5.40;99.90;;;;;;5032126;28;20242;-61
2022/01/17 02:45:19;;;;;;;25.10;15.87;;;5.50;99.90;;;;;;5031817;28;20309;-61
2022/01/17 02:47:45;;;;;;;21.00;15.20;;;5.50;99.90;;;;;;5032269;28;20226;-61
2022/01/17 02:50:13;;;;;;;20.57;15.17;;;5.30;99.90;;;;;;5035173;28;20210;-61
2022/01/17 02:52:39;;;;;;;22.77;15.60;;;5.00;99.90;;;;;;5037122;28;20213;-61
2022/01/17 02:55:09;;;;;;;23.73;15.63;;;4.90;99.90;;;;;;5046172;28;20202;-61
2022/01/17 02:57:35;;;;;;;22.30;15.70;;;4.90;99.90;;;;;;5047752;28;20229;-61
2022/01/17 03:00:03;;;;;;;22.37;15.80;;;4.90;99.90;;;;;;5043449;28;20206;-62
2022/01/17 03:02:30;;;;;;;25.40;15.77;;;4.90;99.90;;;;;;5036441;28;20460;-61
2022/01/17 03:04:56;;;;;;;24.67;17.50;;;5.00;99.90;;;;;;5035948;28;20336;-61
2022/01/17 03:07:23;;;;;;;21.13;15.83;;;5.10;99.90;;;;;;5035941;28;20210;-61
2022/01/17 03:10:01;;;;;;;23.00;15.33;;;5.20;99.90;;;;;;5035684;28;20206;-61
2022/01/17 03:12:30;;;;;;;24.73;16.50;;;5.40;99.90;;;;;;5035743;28;20202;-61
2022/01/17 03:14:56;;;;;;;22.67;16.23;;;5.60;99.90;;;;;;5035470;28;20218;-61
2022/01/17 03:17:23;;;;;;;21.40;15.93;;;5.80;99.90;;;;;;5035404;28;20689;-61
2022/01/17 03:19:50;;;;;;;22.33;16.27;;;6.00;99.90;;;;;;5035413;28;20674;-61
2022/01/17 03:22:17;;;;;;;23.30;16.17;;;6.10;99.90;;;;;;5035273;28;20650;-61
2022/01/17 03:24:43;;;;;;;22.00;16.17;;;6.20;99.90;;;;;;5034935;28;20692;-61
2022/01/17 03:27:10;;;;;;;21.80;15.57;;;6.20;99.90;;;;;;5035449;28;20210;-63
2022/01/17 03:29:38;;;;;;;20.00;15.03;;;6.30;99.90;;;;;;5035073;28;20276;-63
2022/01/17 03:32:05;;;;;;;20.63;15.73;;;6.30;99.90;;;;;;5034977;28;20287;-61
2022/01/17 03:34:32;;;;;;;22.57;16.50;;;6.10;99.90;;;;;;5035182;28;20244;-60
2022/01/17 03:36:58;;;;;;;21.50;15.87;;;5.70;99.90;;;;;;5035501;28;20252;-60
2022/01/17 03:39:25;;;;;;;23.37;16.50;;;5.50;99.90;;;;;;5035866;28;20199;-61
2022/01/17 03:41:52;;;;;;;22.33;15.73;;;5.40;99.90;;;;;;5035449;28;20288;-60
2022/01/17 03:44:19;;;;;;;24.10;17.23;;;5.40;99.90;;;;;;5035247;28;20202;-60
2022/01/17 03:46:47;;;;;;;23.10;16.20;;;5.20;99.90;;;;;;5035257;28;20206;-61
2022/01/17 03:49:13;;;;;;;23.80;17.10;;;5.00;99.90;;;;;;5035260;28;20649;-61
2022/01/17 03:51:40;;;;;;;21.80;15.63;;;5.00;99.90;;;;;;5035213;28;20226;-61
2022/01/17 03:54:07;;;;;;;25.93;15.83;;;5.00;99.90;;;;;;5035437;28;20206;-60
2022/01/17 03:56:33;;;;;;;21.83;15.57;;;4.80;99.90;;;;;;5035462;28;20206;-60
2022/01/17 03:59:00;;;;;;;21.87;15.87;;;4.80;99.90;;;;;;5035349;28;20268;-60
2022/01/17 04:01:27;;;;;;;21.00;15.50;;;4.90;99.90;;;;;;5034337;28;20323;-60
2022/01/17 04:03:55;;;;;;;25.63;17.13;;;4.90;99.90;;;;;;5034967;28;20206;-61
2022/01/17 04:06:22;;;;;;;26.07;16.60;;;4.80;99.90;;;;;;5040654;28;20272;-61
2022/01/17 04:08:49;;;;;;;24.77;16.80;;;4.80;99.90;;;;;;5044691;28;20230;-61
2022/01/17 04:11:16;;;;;;;24.83;16.40;;;4.80;99.90;;;;;;5046269;28;20261;-60
2022/01/17 04:13:42;;;;;;;23.47;16.20;;;4.80;99.90;;;;;;5043929;28;20213;-61
2022/01/17 04:16:11;;;;;;;24.47;16.93;;;5.00;99.90;;;;;;5039499;28;20210;-61
2022/01/17 04:18:38;;;;;;;27.43;16.50;;;5.20;99.90;;;;;;5035585;28;20202;-62
2022/01/17 04:21:06;;;;;;;23.20;15.93;;;5.40;99.90;;;;;;5035694;28;20710;-61
2022/01/17 04:23:33;;;;;;;22.20;15.43;;;5.50;99.90;;;;;;5034554;28;20217;-61
2022/01/17 04:25:59;;;;;;;21.87;16.33;;;5.70;99.90;;;;;;5034817;28;20214;-61
2022/01/17 04:28:26;;;;;;;23.60;16.13;;;5.80;99.90;;;;;;5034392;28;20226;-61
2022/01/17 04:30:53;;;;;;;22.90;16.13;;;5.80;99.90;;;;;;5035920;28;20238;-61
2022/01/17 04:33:19;;;;;;;24.43;16.03;;;5.70;99.90;;;;;;5037090;28;20206;-61
2022/01/17 04:35:46;;;;;;;23.03;15.67;;;5.80;99.90;;;;;;5035594;28;20268;-61
2022/01/17 04:38:17;;;;;;;23.67;16.20;;;5.90;99.90;;;;;;5041187;28;20203;-61
2022/01/17 04:40:46;;;;;;;23.10;15.47;;;5.80;99.90;;;;;;5043304;28;20260;-61
2022/01/17 04:43:19;;;;;;;21.63;14.60;;;5.70;99.90;;;;;;5034916;28;20630;-61
2022/01/17 04:45:46;;;;;;;21.90;15.60;;;5.50;99.90;;;;;;5034058;28;20206;-61
2022/01/17 04:48:13;;;;;;;21.23;15.13;;;5.20;99.90;;;;;;5034115;28;20698;-62
2022/01/17 04:50:41;;;;;;;23.63;15.23;;;5.20;99.90;;;;;;5033953;28;20226;-61
2022/01/17 04:53:08;;;;;;;18.30;13.90;;;5.40;99.90;;;;;;5033769;28;20210;-61
2022/01/17 04:55:36;;;;;;;19.07;13.90;;;5.50;99.90;;;;;;5033679;28;20213;-61
2022/01/17 04:58:04;;;;;;;19.37;13.40;;;5.60;99.90;;;;;;5033670;28;20298;-61
2022/01/17 05:00:31;;;;;;;19.13;13.33;;;5.70;99.90;;;;;;5033479;28;20230;-61
2022/01/17 05:02:58;;;;;;;18.27;13.63;;;5.80;99.90;;;;;;5033367;28;20689;-62
2022/01/17 05:05:24;;;;;;;24.93;15.63;;;5.90;99.90;;;;;;5033325;28;20674;-62
2022/01/17 05:07:52;;;;;;;19.53;14.00;;;5.90;99.90;;;;;;5033555;28;20218;-61
2022/01/17 05:10:22;;;;;;;19.50;13.50;;;5.80;99.90;;;;;;5033241;28;20260;-61
2022/01/17 05:12:51;;;;;;;20.60;14.70;;;5.80;99.90;;;;;;5033459;28;20210;-62
2022/01/17 05:15:28;;;;;;;20.77;14.03;;;5.70;99.90;;;;;;5033804;28;20590;-62
2022/01/17 05:18:23;;;;;;;18.30;12.50;;;5.70;99.90;;;;;;5034636;28;20206;-62
2022/01/17 05:20:50;;;;;;;19.70;12.53;;;5.80;99.90;;;;;;5034730;28;20225;-61
2022/01/17 05:23:17;;;;;;;16.97;12.47;;;6.00;99.90;;;;;;5033731;28;20210;-61
2022/01/17 05:25:44;;;;;;;17.57;11.77;;;6.00;99.90;;;;;;5034699;28;20207;-62
2022/01/17 05:28:12;;;;;;;19.43;12.70;;;6.00;99.90;;;;;;5034464;28;20229;-61
2022/01/17 05:30:39;;;;;;;18.30;12.63;;;6.10;99.90;;;;;;5037643;28;20245;-62
2022/01/17 05:33:05;;;;;;;17.03;12.37;;;6.20;99.90;;;;;;5036651;28;20334;-62
2022/01/17 05:35:32;;;;;;;16.50;12.00;;;6.10;99.90;;;;;;5038340;28;20280;-62
2022/01/17 05:37:59;;;;;;;19.03;13.10;;;6.10;99.90;;;;;;5037822;28;20217;-62
2022/01/17 05:40:26;;;;;;;17.20;12.00;;;6.10;99.90;;;;;;5036935;28;20659;-62
2022/01/17 05:42:53;;;;;;;17.17;11.83;;;6.20;99.90;;;;;;5036514;28;20724;-61
2022/01/17 05:45:22;;;;;;;18.53;12.00;;;6.30;99.90;;;;;;5036453;28;20206;-61
2022/01/17 05:47:49;;;;;;;17.07;11.43;;;6.20;99.90;;;;;;5036146;28;20214;-61
2022/01/17 05:50:16;;;;;;;19.17;12.40;;;6.20;99.90;;;;;;5034124;28;20570;-61
2022/01/17 05:52:44;;;;;;;18.13;11.60;;;6.20;99.90;;;;;;5035097;28;20218;-61
2022/01/17 05:55:16;;;;;;;17.53;12.03;;;6.20;99.90;;;;;;5037611;28;20344;-62
2022/01/17 05:57:43;;;;;;;15.07;11.37;;;6.20;99.90;;;;;;5036989;28;20210;-62
2022/01/17 06:00:12;;;;;;;16.87;11.03;;;6.20;99.90;;;;;;5037476;28;20209;-61
2022/01/17 06:02:40;;;;;;;13.70;10.37;;;6.10;99.90;;;;;;5037827;28;20213;-61
2022/01/17 06:05:08;;;;;;;16.03;10.90;;;6.10;99.90;;;;;;5035247;28;20210;-62
2022/01/17 06:07:35;;;;;;;15.37;11.37;;;6.20;99.90;;;;;;5035520;28;20206;-62
2022/01/17 06:10:01;;;;;;;15.73;10.43;;;6.20;99.90;;;;;;5035453;28;20229;-62
2022/01/17 06:12:28;;;;;;;13.00;9.23;;;6.30;99.90;;;;;;5036376;28;20202;-62
2022/01/17 06:14:57;;;;;;;14.10;9.93;;;6.20;99.90;;;;;;5034910;28;20260;-61
2022/01/17 06:17:23;;;;;;;15.20;10.40;;;6.20;99.90;;;;;;5034441;28;20221;-62
2022/01/17 06:19:51;;;;;;;14.17;9.93;;;6.30;99.90;;;;;;5033025;28;20210;-62
2022/01/17 06:22:18;;;;;;;12.67;9.53;;;6.40;99.90;;;;;;5033647;28;20226;-62
2022/01/17 06:24:45;;;;;;;15.57;9.70;;;6.40;99.90;;;;;;5032644;28;20328;-62
2022/01/17 06:27:11;;;;;;;13.00;9.40;;;6.40;99.90;;;;;;5033002;28;20209;-62
2022/01/17 06:29:38;;;;;;;13.43;9.43;;;6.50;99.90;;;;;;5031818;28;20716;-63
2022/01/17 06:32:07;;;;;;;14.00;9.80;;;6.60;99.90;;;;;;5032103;28;20241;-62
2022/01/17 06:34:34;;;;;;;13.83;9.40;;;6.60;99.90;;;;;;5032470;28;20293;-61
2022/01/17 06:37:02;;;;;;;11.53;8.73;;;6.50;99.90;;;;;;5032437;28;20210;-61
2022/01/17 06:39:28;;;;;;;13.00;9.80;;;6.30;99.90;;;;;;5033038;28;20245;-61
2022/01/17 06:41:55;;;;;;;17.27;11.40;;;5.90;99.90;;;;;;5032999;28;20227;-61
2022/01/17 06:44:22;;;;;;;12.73;9.30;;;5.90;99.90;;;;;;5031886;28;20206;-62
2022/01/17 06:46:48;;;;;;;12.90;8.87;;;6.00;99.90;;;;;;5031661;28;20264;-61
2022/01/17 06:49:15;;;;;;;13.77;9.47;;;6.30;99.90;;;;;;5031895;28;20229;-62
2022/01/17 06:51:42;;;;;;;12.93;9.33;;;6.40;99.90;;;;;;5031660;28;20593;-62
2022/01/17 06:54:10;;;;;;;11.87;9.30;;;6.50;99.90;;;;;;5031495;28;20578;-62
2022/01/17 06:56:43;;;;;;;12.33;9.40;;;6.60;99.90;;;;;;5031688;28;20206;-61
2022/01/17 06:59:10;;;;;;;12.40;9.20;;;6.50;99.90;;;;;;5031613;28;20662;-63
2022/01/17 07:01:38;;;;;;;12.13;8.87;;;6.40;99.90;;;;;;5032680;28;20226;-60
2022/01/17 07:04:05;;;;;;;11.80;8.57;;;6.10;99.90;;;;;;5032550;28;20296;-62
2022/01/17 07:06:32;;;;;;;13.73;9.50;;;5.90;99.90;;;;;;5032556;28;20211;-63
2022/01/17 07:08:58;;;;;;;12.33;8.37;;;5.70;99.90;;;;;;5032069;28;20219;-62
2022/01/17 07:11:27;;;;;;;12.27;8.90;;;5.90;99.90;;;;;;5032056;28;20280;-62
2022/01/17 07:13:54;;;;;;;14.07;8.73;;;6.10;99.90;;;;;;5031459;28;20393;-61
2022/01/17 07:16:23;;;;;;;11.27;8.80;;;6.10;99.90;;;;;;5031574;28;20628;-62
2022/01/17 07:18:49;;;;;;;14.03;8.90;;;6.30;99.90;;;;;;5031800;28;20202;-62
2022/01/17 07:21:16;;;;;;;13.27;8.90;;;6.40;99.90;;;;;;5031328;28;20233;-63
2022/01/17 07:23:42;;;;;;;12.93;9.07;;;6.50;99.90;;;;;;5031329;28;20210;-63
2022/01/17 07:26:09;;;;;;;12.23;8.50;;;6.60;99.90;;;;;;5031323;28;20321;-62
2022/01/17 07:28:37;;;;;;;11.53;8.20;;;6.70;99.90;;;;;;5031378;28;20207;-62
2022/01/17 07:31:04;;;;;;;12.30;8.73;;;6.80;99.90;;;;;;5031403;28;20918;-61
2022/01/17 07:33:37;;;;;;;15.10;10.07;;;6.80;99.90;;;;;;5031410;28;20288;-61
2022/01/17 07:36:04;;;;;;;12.23;8.83;;;6.80;99.90;;;;;;5032565;28;20229;-62
2022/01/17 07:38:31;;;;;;;12.27;9.20;;;6.70;99.90;;;;;;5034949;28;20202;-62
2022/01/17 07:40:58;;;;;;;19.57;13.27;;;6.80;99.90;;;;;;5034696;28;20223;-61
2022/01/17 07:43:25;;;;;;;42.80;26.07;;;6.80;99.90;;;;;;5034828;28;20210;-62
2022/01/17 07:46:03;;;;;;;13.00;9.73;;;6.80;99.90;;;;;;5034826;28;20280;-62
2022/01/17 07:51:14;;;;;;;14.90;9.67;;;7.00;99.90;;;;;;5034703;28;20225;-61
2022/01/17 07:53:41;;;;;;;12.63;8.93;;;7.10;99.90;;;;;;5034689;28;20268;-61
2022/01/17 07:56:08;;;;;;;16.90;11.40;;;7.10;99.90;;;;;;5034583;28;20206;-62
2022/01/17 07:58:34;;;;;;;12.13;9.27;;;7.20;99.90;;;;;;5034486;28;20271;-61
2022/01/17 08:01:03;;;;;;;12.03;8.87;;;7.30;99.90;;;;;;5034500;28;20223;-60
2022/01/17 08:03:29;;;;;;;10.20;8.10;;;7.30;99.90;;;;;;5034096;28;20203;-67
2022/01/17 08:05:56;;;;;;;10.83;7.70;;;7.40;99.90;;;;;;5034227;28;20206;-59
2022/01/17 08:08:23;;;;;;;11.07;8.20;;;7.30;99.90;;;;;;5034341;28;20730;-60
2022/01/17 08:10:50;;;;;;;10.57;8.23;;;7.30;99.90;;;;;;5034517;28;20264;-60
2022/01/17 08:13:18;;;;;;;10.60;7.80;;;7.30;99.90;;;;;;5034242;28;20213;-59
2022/01/17 08:15:45;;;;;;;10.90;8.07;;;7.40;99.90;;;;;;5034539;28;20752;-59
2022/01/17 08:18:14;;;;;;;10.90;7.77;;;7.50;99.90;;;;;;5034188;28;20305;-59
2022/01/17 08:20:41;;;;;;;9.33;7.50;;;7.60;99.90;;;;;;5034304;28;20226;-59
2022/01/17 08:23:08;;;;;;;9.33;6.90;;;7.80;99.90;;;;;;5034360;28;20210;-59
2022/01/17 08:25:36;;;;;;;9.70;7.63;;;7.90;99.90;;;;;;5034029;28;20678;-59
2022/01/17 08:28:03;;;;;;;10.50;7.60;;;7.90;99.90;;;;;;5033974;28;20207;-61
2022/01/17 08:30:31;;;;;;;14.53;10.87;;;7.90;99.90;;;;;;5033711;28;20261;-61
2022/01/17 08:32:58;;;;;;;10.50;7.40;;;7.90;99.90;;;;;;5033840;28;20248;-61
2022/01/17 08:35:27;;;;;;;10.20;7.80;;;7.90;99.90;;;;;;5033814;28;20206;-60
2022/01/17 08:37:54;;;;;;;8.83;7.10;;;8.00;99.90;;;;;;5034154;28;20206;-60
2022/01/17 08:40:21;;;;;;;10.50;8.03;;;7.90;99.90;;;;;;5033771;28;20635;-61
2022/01/17 08:42:49;;;;;;;8.20;6.90;;;7.70;99.90;;;;;;5033842;28;20582;-59
2022/01/17 08:45:17;;;;;;;10.53;7.30;;;7.70;99.90;;;;;;5034030;28;20259;-59
2022/01/17 08:47:49;;;;;;;9.20;6.67;;;7.70;99.90;;;;;;5033173;28;20214;-60
2022/01/17 08:50:17;;;;;;;9.07;6.80;;;7.80;99.90;;;;;;5033439;28;20230;-59
2022/01/17 08:52:46;;;;;;;10.67;7.77;;;7.80;99.90;;;;;;5033781;28;20206;-59
2022/01/17 08:55:13;;;;;;;9.57;6.93;;;7.90;99.90;;;;;;5033259;28;20214;-59
2022/01/17 08:57:40;;;;;;;8.30;6.53;;;7.90;99.90;;;;;;5033361;28;20238;-59
2022/01/17 09:00:10;;;;;;;7.90;6.43;;;8.00;99.90;;;;;;5033024;28;20210;-59
2022/01/17 09:02:37;;;;;;;10.27;7.53;;;8.00;99.90;;;;;;5033097;28;20256;-60
2022/01/17 09:05:04;;;;;;;8.43;6.50;;;8.10;99.90;;;;;;5033088;28;20202;-59
2022/01/17 09:07:31;;;;;;;8.13;6.53;;;8.00;99.90;;;;;;5033307;28;20232;-59
2022/01/17 09:09:59;;;;;;;11.30;7.30;;;7.80;99.90;;;;;;5033100;28;20226;-60
2022/01/17 09:12:26;;;;;;;8.57;6.47;;;7.80;99.90;;;;;;5033009;28;20214;-59
2022/01/17 09:14:52;;;;;;;11.53;8.40;;;8.00;99.90;;;;;;5032773;28;20256;-59
2022/01/17 09:17:19;;;;;;;11.10;7.57;;;8.00;99.90;;;;;;5032585;28;20209;-60
2022/01/17 09:19:48;;;;;;;9.60;7.00;;;8.20;99.90;;;;;;5033001;28;20257;-59
2022/01/17 09:22:15;;;;;;;8.20;6.60;;;8.30;99.90;;;;;;5032714;28;20689;-59
2022/01/17 09:24:41;;;;;;;8.80;6.47;;;8.50;99.90;;;;;;5032511;28;20269;-60
2022/01/17 09:27:10;;;;;;;8.77;6.90;;;8.60;99.90;;;;;;5032620;28;20203;-59
2022/01/17 09:29:37;;;;;;;8.47;6.67;;;8.50;99.90;;;;;;5032694;28;20626;-59
2022/01/17 09:32:05;;;;;;;10.30;8.17;;;8.50;99.90;;;;;;5032888;28;20229;-60
2022/01/17 09:34:31;;;;;;;9.17;7.23;;;8.60;99.90;;;;;;5032630;28;20260;-59
2022/01/17 09:36:58;;;;;;;10.40;7.43;;;8.70;99.90;;;;;;5032478;28;20678;-59
2022/01/17 09:39:25;;;;;;;8.57;6.40;;;8.70;99.90;;;;;;5032620;28;20214;-59
2022/01/17 09:41:52;;;;;;;7.57;6.43;;;8.60;99.90;;;;;;5032469;28;20227;-59
2022/01/17 09:44:20;;;;;;;10.03;7.33;;;8.30;99.90;;;;;;5032434;28;20264;-59
2022/01/17 09:46:52;;;;;;;9.70;7.20;;;8.30;99.90;;;;;;5032156;28;20214;-60
2022/01/17 09:49:24;;;;;;;11.10;7.57;;;8.40;99.90;;;;;;5032470;28;20206;-60
2022/01/17 09:52:05;;;;;;;11.53;8.60;;;8.40;99.90;;;;;;5032172;28;20308;-59
2022/01/17 09:54:36;;;;;;;11.43;7.87;;;8.20;99.90;;;;;;5032419;28;20296;-59
2022/01/17 09:57:08;;;;;;;10.53;7.97;;;7.90;99.90;;;;;;5032556;28;20752;-60
2022/01/17 09:59:38;;;;;;;10.57;8.20;;;7.70;99.90;;;;;;5031733;28;20206;-60
2022/01/17 10:02:05;;;;;;;9.03;7.90;;;7.50;99.90;;;;;;5032178;28;20312;-59
2022/01/17 10:04:33;;;;;;;11.37;8.80;;;7.50;99.90;;;;;;5031912;28;20206;-59
2022/01/17 10:07:01;;;;;;;11.57;7.57;;;7.50;99.90;;;;;;5032096;28;20264;-60
2022/01/17 10:09:29;;;;;;;16.03;11.03;;;7.40;99.90;;;;;;5032546;28;20206;-59
2022/01/17 10:12:05;;;;;;;11.87;7.67;;;7.40;99.90;;;;;;5032015;28;20237;-60
2022/01/17 10:14:36;;;;;;;11.27;8.87;;;7.60;99.90;;;;;;5031931;28;20205;-60
2022/01/17 10:17:10;;;;;;;8.30;6.73;;;7.70;99.90;;;;;;5031995;28;20206;-60
2022/01/17 10:19:38;;;;;;;9.87;7.57;;;7.90;99.90;;;;;;5032046;28;20219;-60
2022/01/17 10:22:12;;;;;;;8.67;6.97;;;7.90;99.90;;;;;;5032128;28;20228;-60
2022/01/17 10:27:49;;;;;;;7.43;5.97;;;8.00;99.90;;;;;;5031702;28;20209;-60
2022/01/17 10:35:57;;;;;;;6.73;6.00;;;7.90;99.90;;;;;;5031688;28;20742;-60
2022/01/17 10:38:27;;;;;;;7.67;5.83;;;7.80;99.90;;;;;;5032101;28;20209;-60
2022/01/17 10:40:57;;;;;;;8.93;6.53;;;7.90;99.90;;;;;;5032183;28;20313;-62
2022/01/17 10:43:26;;;;;;;7.47;6.10;;;8.00;99.90;;;;;;5031859;28;20246;-60
2022/01/17 10:45:54;;;;;;;8.20;6.40;;;8.10;99.90;;;;;;5031635;28;20205;-60
2022/01/17 10:48:29;;;;;;;8.30;5.60;;;8.20;99.90;;;;;;5031661;28;20252;-60
2022/01/17 10:50:55;;;;;;;6.90;5.73;;;8.20;99.90;;;;;;5031826;28;20237;-61
2022/01/17 10:53:22;;;;;;;5.77;5.17;;;8.40;99.90;;;;;;5031861;28;20210;-61
2022/01/17 10:55:51;;;;;;;7.10;5.13;;;8.40;99.90;;;;;;5031559;28;20206;-62
2022/01/17 10:58:23;;;;;;;6.73;4.70;;;8.50;99.90;;;;;;5031967;28;20213;-60
2022/01/17 11:00:51;;;;;;;6.27;5.13;;;8.60;99.90;;;;;;5031724;28;20250;-62
2022/01/17 11:03:21;;;;;;;6.07;5.20;;;8.50;99.90;;;;;;5031588;28;20678;-60
2022/01/17 11:05:52;;;;;;;6.73;5.50;;;8.50;99.90;;;;;;5031075;28;20746;-61
2022/01/17 11:08:20;;;;;;;6.83;5.17;;;8.40;99.90;;;;;;5031948;28;20207;-61
2022/01/17 11:10:50;;;;;;;7.37;5.60;;;8.50;99.90;;;;;;5033311;28;20698;-60
2022/01/17 11:13:19;;;;;;;6.20;4.83;;;8.50;99.90;;;;;;5035248;28;20674;-60
2022/01/17 11:15:50;;;;;;;6.50;4.90;;;8.50;99.90;;;;;;5035312;28;20260;-60
2022/01/17 11:18:21;;;;;;;7.00;5.17;;;8.50;99.90;;;;;;5035512;28;20210;-61
2022/01/17 11:20:55;;;;;;;6.57;4.97;;;8.60;99.90;;;;;;5035300;28;20226;-60
2022/01/17 11:23:23;;;;;;;6.10;4.83;;;8.60;99.90;;;;;;5035286;28;20210;-60
2022/01/17 11:25:54;;;;;;;7.07;5.07;;;8.60;99.90;;;;;;5035479;28;20206;-61
2022/01/17 11:28:23;;;;;;;5.77;4.87;;;8.60;99.90;;;;;;5035309;28;20213;-62
2022/01/17 11:30:52;;;;;;;6.60;4.90;;;8.50;99.90;;;;;;5035001;28;20245;-61
2022/01/17 11:33:19;;;;;;;5.30;4.60;;;8.30;99.90;;;;;;5034970;28;20210;-61
2022/01/17 11:35:51;;;;;;;5.27;4.60;;;8.30;99.90;;;;;;5034656;28;20629;-61
2022/01/17 11:38:24;;;;;;;5.77;4.77;;;8.40;99.90;;;;;;5034649;28;20206;-61
2022/01/17 11:40:51;;;;;;;5.73;4.87;;;8.40;99.90;;;;;;5035027;28;20222;-61
2022/01/17 11:43:22;;;;;;;5.80;4.83;;;8.60;99.90;;;;;;5034906;28;20559;-60
2022/01/17 11:45:49;;;;;;;4.77;4.30;;;8.60;99.90;;;;;;5034338;28;20568;-61
2022/01/17 11:48:25;;;;;;;5.57;4.73;;;8.70;99.90;;;;;;5034705;28;20214;-61
2022/01/17 11:50:53;;;;;;;5.70;4.60;;;8.90;99.90;;;;;;5034402;28;20230;-61
2022/01/17 11:53:52;;;;;;;6.27;4.53;;;9.10;99.90;;;;;;5034544;28;20562;-61
2022/01/17 11:56:45;;;;;;;6.93;5.30;;;9.10;99.90;;;;;;5034658;28;20643;-61
2022/01/17 11:59:46;;;;;;;6.33;4.93;;;9.20;99.90;;;;;;5034302;28;20214;-60
2022/01/17 12:02:19;;;;;;;6.13;5.00;;;9.00;99.90;;;;;;5034432;28;20304;-61
2022/01/17 12:05:19;;;;;;;13.27;9.03;;;9.10;99.90;;;;;;5034242;28;20202;-61
2022/01/17 12:07:51;;;;;;;5.60;4.63;;;9.10;99.90;;;;;;5034365;28;20217;-62
2022/01/17 12:10:22;;;;;;;5.03;4.53;;;8.90;99.90;;;;;;5034740;28;20408;-60
2022/01/17 12:13:23;;;;;;;5.43;4.57;;;8.80;99.90;;;;;;5034167;28;20218;-63
2022/01/17 12:15:57;;;;;;;5.83;4.17;;;8.60;99.90;;;;;;5033884;28;20685;-61
2022/01/17 12:18:28;;;;;;;6.33;4.43;;;8.50;99.90;;;;;;5034169;28;20220;-61
2022/01/17 12:20:55;;;;;;;4.90;4.20;;;8.50;99.90;;;;;;5034117;28;20305;-65
2022/01/17 12:23:25;;;;;;;7.30;4.33;;;8.60;99.90;;;;;;5033329;28;20225;-62
2022/01/17 12:25:53;;;;;;;4.73;4.00;;;8.50;99.90;;;;;;5033854;28;20300;-61
2022/01/17 12:28:25;;;;;;;5.72;4.80;;;8.50;99.90;;;;;;5027172;28;20447;-62
2022/01/17 12:30:55;;;;;;;6.17;4.63;;;8.40;99.90;;;;;;5013769;28;20321;-65
2022/01/17 12:33:37;;;;;;;4.60;4.10;;;8.30;99.90;;;;;;5013876;28;20629;-65
2022/01/17 12:36:07;;;;;;;5.90;4.60;;;8.40;99.90;;;;;;5013799;28;20209;-64
2022/01/17 12:38:37;;;;;;;5.47;4.60;;;8.40;99.90;;;;;;5013709;28;20567;-65
2022/01/17 12:41:06;;;;;;;6.87;4.83;;;8.30;99.90;;;;;;5013771;28;20727;-64
2022/01/17 12:43:35;;;;;;;5.90;5.30;;;8.40;99.90;;;;;;5014016;28;20265;-62
2022/01/17 12:46:04;;;;;;;5.17;4.60;;;8.40;99.90;;;;;;5013691;28;20207;-65
2022/01/17 12:48:34;;;;;;;6.20;4.90;;;8.50;99.90;;;;;;5013635;28;20211;-63
2022/01/17 12:51:03;;;;;;;6.10;4.83;;;8.40;99.90;;;;;;5013542;28;20231;-66
2022/01/17 12:53:30;;;;;;;5.07;4.40;;;8.50;99.90;;;;;;5013487;28;20218;-67
2022/01/17 12:55:59;;;;;;;6.27;5.10;;;8.50;99.90;;;;;;5013294;28;20687;-63
2022/01/17 12:58:30;;;;;;;7.00;5.33;;;8.50;99.90;;;;;;5013723;28;20210;-66
2022/01/17 13:01:01;;;;;;;5.77;5.17;;;8.50;99.90;;;;;;5013575;28;20223;-64
2022/01/17 13:03:32;;;;;;;6.27;5.07;;;8.70;99.90;;;;;;5013471;28;20599;-66
2022/01/17 13:06:00;;;;;;;7.30;5.03;;;8.70;99.90;;;;;;5013037;28;20209;-66
2022/01/17 13:08:27;;;;;;;6.43;5.33;;;8.70;99.90;;;;;;5013610;28;20203;-66
2022/01/17 13:10:55;;;;;;;6.50;5.10;;;8.70;99.90;;;;;;5013507;28;20222;-69